Estación Meteorológica Peña el Pijo (Robertgarden) [ 01/30/23 14:39:34 CET ]

Fecha Hora Presion(HPa) Temp (°C) Humedad % Rocio (°C) Viento ( m/s) Direccion Lluvia 1Hora(mm) Lluvia 24H(mm) LLuvia Total(mm)
2010-Mar-17 01:01:14 1017.100 0.3 68 -4.9         100.49
2010-Mar-17 02:03:15 1017.500 -1.2 70 -6.0         100.49
2010-Mar-17 03:01:16 1017.600 -1.1 71 -5.7         100.49
2010-Mar-17 04:01:16 1017.100 -0.2 68 -5.4         100.49
2010-Mar-17 05:01:13 1016.600 -0.2 67 -5.6         100.49
2010-Mar-17 06:01:16 1016.500 0.1 69 -4.9         100.49
2010-Mar-17 07:01:18 1017.000 -0.2 70 -5.0         100.49
2010-Mar-17 08:01:12 1017.800 -1.2 73 -5.5         100.49
2010-Mar-17 09:01:14 1018.200 3.9 63 -2.6         100.49
2010-Mar-17 10:01:14 1018.000 10.2 40 -2.8         100.49
2010-Mar-17 11:01:19 1017.800 14.9 26 -4.7         100.49
2010-Mar-17 12:01:18 1017.700 16.8 25 -3.6         100.49
2010-Mar-17 13:01:18 1017.800 16.6 25 -3.7         100.49
2010-Mar-17 14:01:14 1017.500 17.9 26 -2.1         100.49
2010-Mar-17 15:01:13 1017.100 17.5 27 -1.9         100.49
2010-Mar-17 16:01:13 1017.000 17.3 27 -2.1 0.6 ESE     100.49
2010-Mar-17 17:01:14 1016.900 16.9 30 -0.8         100.49
2010-Mar-17 18:01:14 1017.000 14.9 36 -0.1 2.2 NE     100.49
2010-Mar-17 19:01:14 1017.300 11.9 44 -0.1         100.49
2010-Mar-17 20:01:12 1018.200 9.2 53 0.1         100.49
2010-Mar-17 21:01:16 1018.800 6.9 59 -0.6         100.49
2010-Mar-17 22:01:13 1019.000 4.4 68 -1.0         100.49
2010-Mar-17 23:01:16 1019.300 2.9 74 -1.3         100.49

Temperatura Máxima:17°    Temperatura Mínima:-1°
Presión Máxima:1019.300 Hpa    Presión Mínima:1016.500 Hpa


Volver